Miedwie — C6XP5 — position and weather

sailwx.info

Track history (hours):
 
Tides and Currents Weather Stations Pressure Air Temp Water Temp Dewpoint Dewpoint Depression Visibility Wind Speed Wind Dir Waves Ship Positions

Miedwie

Last reported at 2017-Jan-09 01:21 UTC. Time now 2017-Jan-18 14:06 UTC.
Position N 37°14' E 000°25'.
Warning: this ship's position is 9 days out of date.

Length 190 m; draft 8.5 m.

Type: Cargo ship. MMSI: 311018300.

Date/timePositionNaut miles runAvg speedWind from/ knotsBaromVisibWave heightAir tempDewpointWater temp
2017-Jan-09 01:21N 37°14' E 000°25'1012.6
2017-Jan-09 00:33N 37°10' E 000°13'1312.6
2017-Jan-08 23:33N 37°05' W 000°01'1312.7
2017-Jan-08 22:33N 37°00' W 000°16'2412.1
2017-Jan-08 20:33N 36°51' W 000°44'22411.8
2017-Jan-08 01:33N 35°60' W 005°14'1212.3
2017-Jan-08 00:33N 35°57' W 005°29'  
2017-Jan-04 03:11N 39°32' W 027°32'2311.9
2017-Jan-04 01:17N 39°37' W 028°01'912.1
2017-Jan-04 00:33N 39°39' W 028°12'1311.8
2017-Jan-03 23:29N 39°41' W 028°29'1111.5
2017-Jan-03 22:33N 39°44' W 028°42'1211.7
2017-Jan-03 21:33N 39°47' W 028°57'1111.5
2017-Jan-03 20:33N 39°49' W 029°11'1611.4
2017-Jan-03 19:08N 39°52' W 029°32'811.5
2017-Jan-03 18:27N 39°54' W 029°42'  
Track history (hours):
 
Tides and Currents Weather Stations Pressure Air Temp Water Temp Dewpoint Dewpoint Depression Visibility Wind Speed Wind Dir Waves Ship Positions

Miedwie

Last reported at 2017-Jan-09 01:21 UTC. Time now 2017-Jan-18 14:06 UTC.
Position N 37°14' E 000°25'.
Warning: this ship's position is 9 days out of date.

Length 190 m; draft 8.5 m.

Type: Cargo ship. MMSI: 311018300.

Date/timePositionNaut miles runAvg speedWind from/ knotsBaromVisibWave heightAir tempDewpointWater temp
2017-Jan-09 01:21N 37°14' E 000°25'1012.6
2017-Jan-09 00:33N 37°10' E 000°13'1312.6
2017-Jan-08 23:33N 37°05' W 000°01'1312.7
2017-Jan-08 22:33N 37°00' W 000°16'2412.1
2017-Jan-08 20:33N 36°51' W 000°44'22411.8
2017-Jan-08 01:33N 35°60' W 005°14'1212.3
2017-Jan-08 00:33N 35°57' W 005°29'  
2017-Jan-04 03:11N 39°32' W 027°32'2311.9
2017-Jan-04 01:17N 39°37' W 028°01'912.1
2017-Jan-04 00:33N 39°39' W 028°12'1311.8
2017-Jan-03 23:29N 39°41' W 028°29'1111.5
2017-Jan-03 22:33N 39°44' W 028°42'1211.7
2017-Jan-03 21:33N 39°47' W 028°57'1111.5
2017-Jan-03 20:33N 39°49' W 029°11'1611.4
2017-Jan-03 19:08N 39°52' W 029°32'811.5
2017-Jan-03 18:27N 39°54' W 029°42'  

Dump ship's entire track history